createdAt,value
2019-03-30T00:00:08.452Z,16.60
2019-03-30T00:02:36.352Z,14.83
2019-03-30T00:05:04.360Z,14.70
2019-03-30T00:07:33.957Z,15.40
2019-03-30T00:10:02.030Z,14.93
2019-03-30T00:12:29.958Z,16.27
2019-03-30T00:14:57.922Z,15.57
2019-03-30T00:17:25.801Z,15.43
2019-03-30T00:19:53.715Z,16.57
2019-03-30T00:22:21.687Z,19.87
2019-03-30T00:24:49.717Z,15.93
2019-03-30T00:27:17.741Z,16.70
2019-03-30T00:29:45.823Z,14.40
2019-03-30T00:32:13.876Z,15.27
2019-03-30T00:34:41.887Z,15.80
2019-03-30T00:37:09.863Z,16.87
2019-03-30T00:39:37.721Z,15.77
2019-03-30T00:42:05.721Z,17.27
2019-03-30T00:44:33.621Z,18.07
2019-03-30T00:47:01.597Z,16.33
2019-03-30T00:49:29.539Z,15.97
2019-03-30T00:51:57.503Z,15.60
2019-03-30T00:54:25.442Z,16.80
2019-03-30T00:56:53.425Z,18.03
2019-03-30T00:59:21.389Z,17.37
2019-03-30T01:01:49.249Z,16.27
2019-03-30T01:04:17.164Z,16.93
2019-03-30T01:06:45.196Z,17.63
2019-03-30T01:09:13.077Z,17.77
2019-03-30T01:11:41.074Z,18.03
2019-03-30T01:14:09.041Z,18.33
2019-03-30T01:16:36.941Z,15.67
2019-03-30T01:19:04.933Z,17.70
2019-03-30T01:21:32.907Z,17.87
2019-03-30T01:24:00.881Z,17.43
2019-03-30T01:26:28.850Z,16.87
2019-03-30T01:28:56.851Z,17.00
2019-03-30T01:31:24.892Z,16.90
2019-03-30T01:33:52.864Z,17.70
2019-03-30T01:36:20.791Z,17.83
2019-03-30T01:38:48.857Z,16.83
2019-03-30T01:41:16.773Z,18.00
2019-03-30T01:43:44.675Z,17.03
2019-03-30T01:46:12.567Z,17.60
2019-03-30T01:48:40.564Z,18.60
2019-03-30T01:51:08.575Z,17.17
2019-03-30T01:53:36.563Z,16.97
2019-03-30T01:56:04.621Z,16.77
2019-03-30T01:58:32.639Z,17.60
2019-03-30T02:01:00.529Z,15.73
2019-03-30T02:03:28.647Z,17.20
2019-03-30T02:05:56.638Z,16.73
2019-03-30T02:08:24.735Z,15.33
2019-03-30T02:10:52.883Z,14.70
2019-03-30T02:13:20.873Z,14.27
2019-03-30T02:15:48.751Z,15.73
2019-03-30T02:18:16.763Z,12.83
2019-03-30T02:20:46.422Z,13.17
2019-03-30T02:23:15.662Z,13.33
2019-03-30T02:25:43.677Z,11.80
2019-03-30T02:28:11.636Z,12.87
2019-03-30T02:30:39.804Z,12.53
2019-03-30T02:33:07.797Z,11.77
2019-03-30T02:35:35.697Z,11.97
2019-03-30T02:38:03.663Z,11.07
2019-03-30T02:40:31.683Z,11.27
2019-03-30T02:43:00.493Z,11.20
2019-03-30T02:45:28.404Z,11.57
2019-03-30T02:47:56.442Z,8.43
2019-03-30T02:50:24.416Z,9.63
2019-03-30T02:52:53.414Z,10.53
2019-03-30T02:55:21.419Z,9.10
2019-03-30T02:57:49.392Z,9.13
2019-03-30T03:00:17.701Z,9.63
2019-03-30T03:02:45.730Z,9.53
2019-03-30T03:05:14.114Z,8.10
2019-03-30T03:07:42.090Z,8.87
2019-03-30T03:10:10.566Z,8.27
2019-03-30T03:12:38.536Z,6.93
2019-03-30T03:15:06.823Z,7.60
2019-03-30T03:17:34.844Z,7.93
2019-03-30T03:20:02.881Z,7.47
2019-03-30T03:22:30.897Z,7.90
2019-03-30T03:24:58.983Z,8.03
2019-03-30T03:27:26.989Z,7.50
2019-03-30T03:29:54.902Z,7.63
2019-03-30T03:32:22.949Z,8.80
2019-03-30T03:34:50.918Z,7.87
2019-03-30T03:37:18.828Z,6.50
2019-03-30T03:39:46.756Z,7.47
2019-03-30T03:42:14.737Z,7.20
2019-03-30T03:44:42.727Z,6.53
2019-03-30T03:47:10.652Z,8.23
2019-03-30T03:49:38.632Z,6.87
2019-03-30T03:52:07.522Z,7.93
2019-03-30T03:54:35.521Z,7.70
2019-03-30T03:57:03.830Z,7.00
2019-03-30T03:59:34.254Z,6.50
2019-03-30T04:02:03.275Z,7.87
2019-03-30T04:04:34.661Z,6.33
2019-03-30T04:07:02.653Z,6.77
2019-03-30T04:09:33.359Z,7.37
2019-03-30T04:12:05.188Z,7.50
2019-03-30T04:14:36.691Z,7.07
2019-03-30T04:17:04.747Z,7.17
2019-03-30T04:19:32.728Z,7.77
2019-03-30T04:22:00.719Z,6.53
2019-03-30T04:24:28.689Z,7.00
2019-03-30T04:26:56.723Z,6.77
2019-03-30T04:29:24.764Z,6.17
2019-03-30T04:31:52.763Z,6.40
2019-03-30T04:34:20.779Z,5.97
2019-03-30T04:36:48.831Z,5.57
2019-03-30T04:39:16.800Z,5.97
2019-03-30T04:41:44.813Z,6.93
2019-03-30T04:44:12.807Z,7.50
2019-03-30T04:46:40.788Z,5.80
2019-03-30T04:49:08.713Z,6.37
2019-03-30T04:51:36.683Z,6.83
2019-03-30T04:54:04.597Z,5.63
2019-03-30T04:56:32.499Z,6.33
2019-03-30T04:59:00.415Z,6.63
2019-03-30T05:01:28.461Z,6.87
2019-03-30T05:03:56.459Z,6.90
2019-03-30T05:06:24.377Z,7.03
2019-03-30T05:08:52.476Z,7.47
2019-03-30T05:11:20.377Z,7.17
2019-03-30T05:13:48.259Z,6.90
2019-03-30T05:16:16.236Z,6.40
2019-03-30T05:18:44.273Z,7.63
2019-03-30T05:21:12.236Z,7.67
2019-03-30T05:23:42.015Z,6.77
2019-03-30T05:26:09.950Z,7.17
2019-03-30T05:28:40.210Z,7.20
2019-03-30T05:31:08.092Z,7.60
2019-03-30T05:33:36.074Z,7.17
2019-03-30T05:36:04.096Z,6.77
2019-03-30T05:38:32.088Z,6.53
2019-03-30T05:41:01.497Z,6.90
2019-03-30T05:43:29.497Z,6.60
2019-03-30T05:45:57.405Z,6.97
2019-03-30T05:48:25.332Z,7.87
2019-03-30T05:50:53.315Z,7.23
2019-03-30T05:53:21.192Z,7.20
2019-03-30T05:55:49.136Z,6.63
2019-03-30T05:58:17.092Z,8.33
2019-03-30T06:00:46.680Z,7.40
2019-03-30T06:03:14.680Z,7.20
2019-03-30T06:05:42.566Z,7.20
2019-03-30T06:08:10.482Z,7.10
2019-03-30T06:10:38.941Z,6.43
2019-03-30T06:13:07.151Z,7.33
2019-03-30T06:15:35.032Z,7.47
2019-03-30T06:18:03.046Z,6.83
2019-03-30T06:20:31.079Z,6.10
2019-03-30T06:22:59.044Z,6.43
2019-03-30T06:25:26.972Z,6.27
2019-03-30T06:27:54.950Z,9.53
2019-03-30T06:30:26.163Z,7.43
2019-03-30T06:32:54.244Z,6.77
2019-03-30T06:35:22.413Z,6.97
2019-03-30T06:37:50.388Z,6.60
2019-03-30T06:40:18.611Z,6.60
2019-03-30T06:42:46.599Z,5.93
2019-03-30T06:45:14.890Z,6.40
2019-03-30T06:47:42.850Z,6.27
2019-03-30T06:50:11.152Z,5.67
2019-03-30T06:52:42.707Z,6.90
2019-03-30T06:55:09.131Z,7.00
2019-03-30T06:57:37.105Z,7.23
2019-03-30T07:00:06.790Z,7.20
2019-03-30T07:02:35.042Z,6.27
2019-03-30T07:05:03.143Z,6.93
2019-03-30T07:07:32.049Z,6.67
2019-03-30T07:10:03.470Z,6.07
2019-03-30T07:12:34.975Z,6.30
2019-03-30T07:15:04.317Z,6.00
2019-03-30T07:17:34.436Z,6.33
2019-03-30T07:20:03.462Z,6.43
2019-03-30T07:22:31.436Z,6.70
2019-03-30T07:24:59.361Z,6.60
2019-03-30T07:27:27.318Z,7.57
2019-03-30T07:29:55.298Z,6.77
2019-03-30T07:32:23.204Z,6.80
2019-03-30T07:34:51.082Z,7.20
2019-03-30T07:37:19.089Z,6.77
2019-03-30T07:39:46.994Z,7.67
2019-03-30T07:42:15.181Z,7.10
2019-03-30T07:44:43.227Z,7.27
2019-03-30T07:47:11.245Z,7.27
2019-03-30T07:49:39.236Z,7.47
2019-03-30T07:52:07.243Z,6.97
2019-03-30T07:54:37.128Z,6.57
2019-03-30T07:57:16.375Z,7.40
2019-03-30T07:59:34.860Z,8.07
2019-03-30T08:02:02.968Z,7.50
2019-03-30T08:04:30.937Z,7.33
2019-03-30T08:06:58.941Z,7.50
2019-03-30T08:09:26.991Z,8.23
2019-03-30T08:11:54.997Z,6.73
2019-03-30T08:14:22.879Z,7.90
2019-03-30T08:16:50.890Z,7.77
2019-03-30T08:19:21.627Z,7.33
2019-03-30T08:21:48.568Z,6.57
2019-03-30T08:24:16.627Z,8.20
2019-03-30T08:26:44.533Z,8.03
2019-03-30T08:29:12.599Z,7.13
2019-03-30T08:31:40.603Z,8.37
2019-03-30T08:34:08.513Z,8.23
2019-03-30T08:36:36.550Z,7.67
2019-03-30T08:39:06.275Z,7.33
2019-03-30T08:41:34.306Z,6.87
2019-03-30T08:44:02.309Z,6.90
2019-03-30T08:46:30.328Z,7.30
2019-03-30T08:49:00.001Z,7.53
2019-03-30T08:51:27.967Z,7.53
2019-03-30T08:53:55.975Z,7.40
2019-03-30T08:56:23.846Z,7.30
2019-03-30T08:58:51.831Z,7.77
2019-03-30T09:01:19.791Z,7.00
2019-03-30T09:03:47.668Z,7.73
2019-03-30T09:06:15.871Z,7.00
2019-03-30T09:08:44.076Z,7.93
2019-03-30T09:11:12.088Z,7.10
2019-03-30T09:13:40.058Z,6.27
2019-03-30T09:16:08.090Z,7.30
2019-03-30T09:18:36.060Z,7.13
2019-03-30T09:21:04.283Z,6.97
2019-03-30T09:23:32.274Z,7.63
2019-03-30T09:26:00.140Z,7.30
2019-03-30T09:28:28.193Z,7.20
2019-03-30T09:30:56.114Z,7.67
2019-03-30T09:33:24.891Z,7.63
2019-03-30T09:35:53.191Z,6.77
2019-03-30T09:38:21.216Z,7.37
2019-03-30T09:40:49.140Z,8.03
2019-03-30T09:43:17.118Z,7.33
2019-03-30T09:45:45.095Z,8.40
2019-03-30T09:48:13.016Z,7.00
2019-03-30T09:50:40.998Z,7.30
2019-03-30T09:53:09.273Z,7.63
2019-03-30T09:55:37.259Z,8.50
2019-03-30T09:58:05.270Z,7.97
2019-03-30T10:00:33.277Z,7.83
2019-03-30T10:03:01.184Z,7.77
2019-03-30T10:05:29.286Z,8.23
2019-03-30T10:07:57.184Z,8.23
2019-03-30T10:10:25.143Z,8.70
2019-03-30T10:12:53.192Z,8.30
2019-03-30T10:15:21.117Z,9.00
2019-03-30T10:17:49.074Z,8.27
2019-03-30T10:20:16.954Z,8.20
2019-03-30T10:22:44.975Z,10.00
2019-03-30T10:25:13.232Z,8.30
2019-03-30T10:27:41.219Z,9.03
2019-03-30T10:30:09.836Z,9.43
2019-03-30T10:32:37.720Z,10.27
2019-03-30T10:35:05.962Z,9.60
2019-03-30T10:37:33.931Z,9.30
2019-03-30T10:40:01.913Z,9.20
2019-03-30T10:42:29.782Z,9.47
2019-03-30T10:44:58.287Z,8.97
2019-03-30T10:47:26.246Z,8.27
2019-03-30T10:49:54.259Z,8.03
2019-03-30T10:52:22.231Z,8.80
2019-03-30T10:54:52.840Z,8.17
2019-03-30T10:57:19.979Z,9.83
2019-03-30T10:59:47.997Z,8.70
2019-03-30T11:02:15.912Z,9.33
2019-03-30T11:04:45.853Z,8.63
2019-03-30T11:07:13.938Z,8.67
2019-03-30T11:09:41.908Z,7.57
2019-03-30T11:12:10.735Z,9.00
2019-03-30T11:14:38.769Z,8.33
2019-03-30T11:17:06.742Z,8.63
2019-03-30T11:19:34.779Z,8.87
2019-03-30T11:22:03.373Z,8.60
2019-03-30T11:24:31.578Z,10.13
2019-03-30T11:26:59.568Z,9.90
2019-03-30T11:29:27.618Z,8.33
2019-03-30T11:31:55.640Z,8.00
2019-03-30T11:34:23.696Z,8.57
2019-03-30T11:36:51.616Z,9.13
2019-03-30T11:39:19.470Z,8.17
2019-03-30T11:41:47.423Z,8.13
2019-03-30T11:44:16.206Z,8.17
2019-03-30T11:46:44.106Z,8.37
2019-03-30T11:49:12.000Z,8.43
2019-03-30T11:51:40.023Z,7.93
2019-03-30T11:54:08.023Z,8.77
2019-03-30T11:56:36.047Z,7.73
2019-03-30T11:59:03.996Z,7.70
2019-03-30T12:01:31.890Z,7.40
2019-03-30T12:03:59.891Z,7.80
2019-03-30T12:06:27.946Z,8.37
2019-03-30T12:08:57.204Z,8.47
2019-03-30T12:11:25.103Z,9.03
2019-03-30T12:13:53.021Z,8.00
2019-03-30T12:16:21.006Z,7.73
2019-03-30T12:18:48.989Z,8.97
2019-03-30T12:21:16.924Z,8.13
2019-03-30T12:23:50.689Z,8.60
2019-03-30T12:26:18.607Z,8.80
2019-03-30T12:28:46.569Z,8.00
2019-03-30T12:31:14.494Z,8.17
2019-03-30T12:33:42.505Z,8.50
2019-03-30T12:36:10.499Z,8.43
2019-03-30T12:38:38.378Z,9.07
2019-03-30T12:41:06.249Z,9.47
2019-03-30T12:43:34.116Z,8.90
2019-03-30T12:46:02.039Z,9.73
2019-03-30T12:48:29.937Z,10.13
2019-03-30T12:50:57.929Z,10.60
2019-03-30T12:53:25.898Z,9.90
2019-03-30T12:55:53.808Z,9.90
2019-03-30T12:58:21.866Z,10.73
2019-03-30T13:00:50.116Z,12.10
2019-03-30T13:03:18.081Z,10.83
2019-03-30T13:05:46.053Z,11.43
2019-03-30T13:08:14.047Z,11.17
2019-03-30T13:10:45.277Z,12.37
2019-03-30T13:13:11.813Z,13.27
2019-03-30T13:15:39.969Z,12.20
2019-03-30T13:18:08.018Z,11.47
2019-03-30T13:20:36.007Z,11.10
2019-03-30T13:23:03.889Z,12.27
2019-03-30T13:25:31.876Z,11.97
2019-03-30T13:28:01.218Z,12.13
2019-03-30T13:30:29.212Z,13.70
2019-03-30T13:32:59.550Z,12.90
2019-03-30T13:35:29.044Z,12.50
2019-03-30T13:37:56.947Z,12.80
2019-03-30T13:40:24.854Z,11.97
2019-03-30T13:42:53.746Z,12.23
2019-03-30T13:45:21.750Z,13.63
2019-03-30T13:47:52.176Z,13.27
2019-03-30T13:50:20.164Z,13.83
2019-03-30T13:52:48.278Z,12.97
2019-03-30T13:55:16.280Z,13.83
2019-03-30T13:57:44.228Z,12.37
2019-03-30T14:00:12.611Z,12.63
2019-03-30T14:02:43.916Z,12.40
2019-03-30T14:05:11.332Z,12.00
2019-03-30T14:07:39.370Z,11.93
2019-03-30T14:10:09.918Z,11.57
2019-03-30T14:12:38.153Z,12.30
2019-03-30T14:15:09.198Z,12.53
2019-03-30T14:17:37.199Z,12.67
2019-03-30T14:20:06.806Z,12.03
2019-03-30T14:22:34.799Z,12.17
2019-03-30T14:25:02.839Z,11.03
2019-03-30T14:27:30.758Z,11.63
2019-03-30T14:29:58.696Z,11.43
2019-03-30T14:32:26.741Z,13.13
2019-03-30T14:34:56.988Z,12.33
2019-03-30T14:37:40.001Z,12.00
2019-03-30T14:40:20.416Z,12.43
2019-03-30T14:42:48.470Z,12.07
2019-03-30T14:51:24.771Z,11.30
2019-03-30T14:53:52.762Z,12.37
2019-03-30T14:56:22.259Z,11.27
2019-03-30T14:58:54.474Z,11.23
2019-03-30T15:01:23.523Z,11.00
2019-03-30T15:03:51.662Z,11.03
2019-03-30T15:06:19.587Z,11.50
2019-03-30T15:08:47.565Z,12.53
2019-03-30T15:11:15.568Z,11.53
2019-03-30T15:13:43.573Z,11.77
2019-03-30T15:16:11.649Z,11.97
2019-03-30T15:18:39.596Z,11.10
2019-03-30T15:21:08.648Z,10.33
2019-03-30T15:23:36.821Z,10.93
2019-03-30T15:26:04.804Z,10.93
2019-03-30T15:28:33.062Z,11.33
2019-03-30T15:31:00.902Z,11.10
2019-03-30T15:33:28.771Z,12.20
2019-03-30T15:35:56.811Z,12.33
2019-03-30T15:38:24.710Z,11.80
2019-03-30T15:40:55.557Z,11.97
2019-03-30T15:43:37.004Z,12.03
2019-03-30T15:45:52.267Z,11.87
2019-03-30T15:48:20.499Z,11.00
2019-03-30T15:50:48.512Z,11.00
2019-03-30T15:53:16.415Z,12.83
2019-03-30T15:55:44.709Z,12.50
2019-03-30T15:58:12.607Z,12.50
2019-03-30T16:00:40.586Z,13.07
2019-03-30T16:03:08.481Z,12.87
2019-03-30T16:05:36.463Z,13.03
2019-03-30T16:08:04.325Z,13.13
2019-03-30T16:10:32.197Z,12.80
2019-03-30T16:13:00.110Z,11.80
2019-03-30T16:15:28.147Z,12.43
2019-03-30T16:17:56.326Z,13.00
2019-03-30T16:20:24.202Z,12.37
2019-03-30T16:22:52.118Z,12.33
2019-03-30T16:25:20.006Z,11.87
2019-03-30T16:27:47.960Z,11.47
2019-03-30T16:30:16.384Z,11.07
2019-03-30T16:32:44.318Z,11.87
2019-03-30T16:35:12.314Z,11.63
2019-03-30T16:37:40.196Z,10.33
2019-03-30T16:40:08.273Z,11.37
2019-03-30T16:42:36.409Z,10.77
2019-03-30T16:45:04.596Z,9.97
2019-03-30T16:47:32.554Z,10.40
2019-03-30T16:50:00.465Z,10.53
2019-03-30T16:52:28.480Z,10.87
2019-03-30T16:54:56.504Z,10.40
2019-03-30T16:57:24.473Z,10.57
2019-03-30T16:59:52.525Z,10.13
2019-03-30T17:02:20.402Z,9.50
2019-03-30T17:04:48.465Z,9.63
2019-03-30T17:07:16.484Z,9.47
2019-03-30T17:09:44.390Z,10.20
2019-03-30T17:12:12.281Z,11.20
2019-03-30T17:14:40.179Z,9.47
2019-03-30T17:17:08.162Z,9.33
2019-03-30T17:19:36.042Z,9.27
2019-03-30T17:22:03.936Z,10.57
2019-03-30T17:24:31.912Z,11.83
2019-03-30T17:26:59.848Z,11.03
2019-03-30T17:29:27.791Z,11.00
2019-03-30T17:31:55.797Z,10.60
2019-03-30T17:34:24.218Z,9.67
2019-03-30T17:36:52.212Z,11.90
2019-03-30T17:39:20.084Z,10.57
2019-03-30T17:41:54.032Z,10.57
2019-03-30T17:44:22.014Z,10.43
2019-03-30T17:46:50.066Z,9.50
2019-03-30T17:49:18.030Z,10.80
2019-03-30T17:51:45.953Z,10.77
2019-03-30T17:54:13.959Z,10.27
2019-03-30T17:56:41.933Z,10.10
2019-03-30T17:59:09.897Z,9.93
2019-03-30T18:01:37.765Z,8.73
2019-03-30T18:04:05.656Z,10.17
2019-03-30T18:06:33.517Z,10.03
2019-03-30T18:09:01.549Z,10.80
2019-03-30T18:11:35.068Z,10.33
2019-03-30T18:14:04.319Z,10.97
2019-03-30T18:16:32.609Z,11.90
2019-03-30T18:19:00.517Z,11.17
2019-03-30T18:21:28.468Z,10.93
2019-03-30T18:23:56.488Z,12.27
2019-03-30T18:26:24.517Z,13.87
2019-03-30T18:28:52.513Z,14.27
2019-03-30T18:31:20.627Z,23.53
2019-03-30T18:33:48.921Z,14.37
2019-03-30T18:36:18.197Z,15.47
2019-03-30T18:38:48.091Z,18.27
2019-03-30T18:41:16.312Z,14.83
2019-03-30T18:43:44.301Z,14.73
2019-03-30T18:46:12.334Z,14.53
2019-03-30T18:48:40.350Z,13.80
2019-03-30T18:51:08.491Z,14.70
2019-03-30T18:53:38.373Z,16.17
2019-03-30T18:56:06.307Z,14.93
2019-03-30T18:58:41.572Z,16.37
2019-03-30T19:01:05.324Z,17.37
2019-03-30T19:03:33.251Z,15.43
2019-03-30T19:06:01.305Z,16.87
2019-03-30T19:08:29.229Z,18.23
2019-03-30T19:10:57.329Z,16.93
2019-03-30T19:13:25.385Z,17.10
2019-03-30T19:15:53.611Z,18.80
2019-03-30T19:18:24.310Z,18.80
2019-03-30T19:20:52.506Z,16.70
2019-03-30T19:23:20.529Z,19.27
2019-03-30T19:25:48.519Z,18.73
2019-03-30T19:28:16.565Z,18.87
2019-03-30T19:30:44.775Z,20.27
2019-03-30T19:33:12.962Z,20.33
2019-03-30T19:35:40.888Z,18.23
2019-03-30T19:38:11.146Z,18.70
2019-03-30T19:40:39.126Z,17.93
2019-03-30T19:43:07.089Z,18.00
2019-03-30T19:45:35.126Z,20.17
2019-03-30T19:48:03.715Z,19.37
2019-03-30T19:50:34.603Z,18.67
2019-03-30T19:53:02.721Z,18.10
2019-03-30T19:55:33.064Z,17.63
2019-03-30T19:58:01.150Z,16.67
2019-03-30T20:00:29.228Z,17.43
2019-03-30T20:02:57.309Z,16.97
2019-03-30T20:05:25.340Z,18.33
2019-03-30T20:07:54.542Z,17.13
2019-03-30T20:10:22.644Z,16.53
2019-03-30T20:12:50.652Z,18.07
2019-03-30T20:15:19.902Z,18.20
2019-03-30T20:17:47.803Z,18.63
2019-03-30T20:20:15.712Z,19.73
2019-03-30T20:22:43.708Z,19.37
2019-03-30T20:25:11.637Z,19.83
2019-03-30T20:27:39.669Z,18.10
2019-03-30T20:30:08.798Z,19.03
2019-03-30T20:32:36.908Z,18.23
2019-03-30T20:35:06.546Z,18.17
2019-03-30T20:37:34.428Z,18.60
2019-03-30T20:40:02.399Z,17.77
2019-03-30T20:42:30.493Z,19.00
2019-03-30T20:44:58.428Z,18.77
2019-03-30T20:47:26.314Z,18.07
2019-03-30T20:50:00.806Z,19.53
2019-03-30T20:52:28.839Z,18.60
2019-03-30T20:54:56.907Z,18.30
2019-03-30T20:57:27.010Z,17.40
2019-03-30T20:59:55.040Z,18.27
2019-03-30T21:02:23.089Z,16.90
2019-03-30T21:04:51.004Z,18.53
2019-03-30T21:07:18.978Z,17.73
2019-03-30T21:09:46.890Z,18.20
2019-03-30T21:12:14.914Z,18.30
2019-03-30T21:14:42.881Z,18.53
2019-03-30T21:17:12.018Z,18.43
2019-03-30T21:19:40.011Z,17.37
2019-03-30T21:22:10.000Z,17.43
2019-03-30T21:24:37.920Z,18.67
2019-03-30T21:27:05.957Z,20.80
2019-03-30T21:29:33.899Z,22.37
2019-03-30T21:32:01.874Z,18.77
2019-03-30T21:34:31.949Z,17.00
2019-03-30T21:37:00.011Z,16.53
2019-03-30T21:39:28.009Z,17.93
2019-03-30T21:41:55.994Z,20.43
2019-03-30T21:44:25.192Z,22.13
2019-03-30T21:46:53.168Z,19.07
2019-03-30T21:49:21.140Z,19.33
2019-03-30T21:51:49.104Z,18.97
2019-03-30T21:54:17.026Z,17.43
2019-03-30T21:56:44.935Z,16.97
2019-03-30T21:59:12.929Z,17.23
2019-03-30T22:01:40.836Z,17.83
2019-03-30T22:04:08.751Z,15.43
2019-03-30T22:06:39.611Z,16.33
2019-03-30T22:09:08.257Z,16.10
2019-03-30T22:11:36.193Z,16.83
2019-03-30T22:14:04.266Z,18.67
2019-03-30T22:16:32.235Z,17.63
2019-03-30T22:19:00.218Z,16.60
2019-03-30T22:21:28.176Z,17.77
2019-03-30T22:23:56.194Z,17.33
2019-03-30T22:26:24.896Z,17.63
2019-03-30T22:28:52.989Z,15.77
2019-03-30T22:31:20.871Z,15.43
2019-03-30T22:33:48.858Z,18.23
2019-03-30T22:36:19.031Z,14.73
2019-03-30T22:38:47.007Z,17.00
2019-03-30T22:41:15.015Z,15.23
2019-03-30T22:43:43.003Z,15.13
2019-03-30T22:46:10.970Z,15.60
2019-03-30T22:48:39.056Z,15.23
2019-03-30T22:51:07.031Z,15.53
2019-03-30T22:53:34.994Z,15.40
2019-03-30T22:56:04.893Z,15.37
2019-03-30T22:58:32.759Z,15.20
2019-03-30T23:01:06.366Z,15.27
2019-03-30T23:03:34.273Z,15.67
2019-03-30T23:06:02.222Z,16.60
2019-03-30T23:08:30.267Z,14.97
2019-03-30T23:10:58.237Z,13.93
2019-03-30T23:13:26.127Z,14.17
2019-03-30T23:15:54.097Z,15.73
2019-03-30T23:18:22.067Z,14.47
2019-03-30T23:20:49.907Z,13.70
2019-03-30T23:23:17.797Z,15.03
2019-03-30T23:25:45.773Z,13.13
2019-03-30T23:28:13.765Z,13.70
2019-03-30T23:30:53.491Z,14.60
2019-03-30T23:33:11.495Z,14.83
2019-03-30T23:35:39.386Z,15.73
2019-03-30T23:38:08.035Z,16.33
2019-03-30T23:40:36.111Z,15.20
2019-03-30T23:43:04.033Z,15.43
2019-03-30T23:45:31.907Z,13.33
2019-03-30T23:47:59.809Z,14.20
2019-03-30T23:50:27.719Z,13.13
2019-03-30T23:52:55.738Z,15.77
2019-03-30T23:55:23.621Z,14.30
2019-03-30T23:57:51.505Z,14.63
